sensor_id;sensor_type;location;lat;lon;timestamp;P1;durP1;ratioP1;P2;durP2;ratioP2
68947;SDS011;55996;49.546;7.400;2023-09-30T00:00:46;2.40;;;1.80;;
68947;SDS011;55996;49.546;7.400;2023-09-30T00:03:11;4.23;;;1.90;;
68947;SDS011;55996;49.546;7.400;2023-09-30T00:05:37;2.27;;;1.80;;
68947;SDS011;55996;49.546;7.400;2023-09-30T00:08:03;3.70;;;2.27;;
68947;SDS011;55996;49.546;7.400;2023-09-30T00:10:29;2.07;;;1.83;;
68947;SDS011;55996;49.546;7.400;2023-09-30T00:12:57;3.77;;;2.10;;
68947;SDS011;55996;49.546;7.400;2023-09-30T00:15:24;3.23;;;1.90;;
68947;SDS011;55996;49.546;7.400;2023-09-30T00:17:49;2.67;;;2.20;;
68947;SDS011;55996;49.546;7.400;2023-09-30T00:20:15;3.57;;;2.30;;
68947;SDS011;55996;49.546;7.400;2023-09-30T00:22:41;5.70;;;2.40;;
68947;SDS011;55996;49.546;7.400;2023-09-30T00:25:07;6.03;;;1.90;;
68947;SDS011;55996;49.546;7.400;2023-09-30T00:27:32;3.77;;;2.17;;
68947;SDS011;55996;49.546;7.400;2023-09-30T00:29:58;2.33;;;1.97;;
68947;SDS011;55996;49.546;7.400;2023-09-30T00:32:23;3.83;;;2.00;;
68947;SDS011;55996;49.546;7.400;2023-09-30T00:34:49;3.60;;;1.93;;
68947;SDS011;55996;49.546;7.400;2023-09-30T00:37:14;2.90;;;1.90;;
68947;SDS011;55996;49.546;7.400;2023-09-30T00:39:39;3.70;;;2.13;;
68947;SDS011;55996;49.546;7.400;2023-09-30T00:42:05;1.93;;;1.80;;
68947;SDS011;55996;49.546;7.400;2023-09-30T00:44:31;3.93;;;2.43;;
68947;SDS011;55996;49.546;7.400;2023-09-30T00:46:56;2.77;;;2.00;;
68947;SDS011;55996;49.546;7.400;2023-09-30T00:49:23;3.57;;;2.03;;
68947;SDS011;55996;49.546;7.400;2023-09-30T00:51:50;3.90;;;2.37;;
68947;SDS011;55996;49.546;7.400;2023-09-30T00:54:16;4.17;;;2.40;;
68947;SDS011;55996;49.546;7.400;2023-09-30T00:56:46;4.30;;;2.20;;
68947;SDS011;55996;49.546;7.400;2023-09-30T00:59:13;3.57;;;2.20;;
68947;SDS011;55996;49.546;7.400;2023-09-30T01:01:43;2.73;;;2.30;;
68947;SDS011;55996;49.546;7.400;2023-09-30T01:04:12;3.57;;;2.10;;
68947;SDS011;55996;49.546;7.400;2023-09-30T01:06:39;3.13;;;2.27;;
68947;SDS011;55996;49.546;7.400;2023-09-30T01:09:06;3.03;;;2.10;;
68947;SDS011;55996;49.546;7.400;2023-09-30T01:11:32;4.30;;;2.57;;
68947;SDS011;55996;49.546;7.400;2023-09-30T01:13:58;5.17;;;2.40;;
68947;SDS011;55996;49.546;7.400;2023-09-30T01:16:23;4.33;;;2.80;;
68947;SDS011;55996;49.546;7.400;2023-09-30T01:18:49;3.87;;;2.50;;
68947;SDS011;55996;49.546;7.400;2023-09-30T01:21:15;5.17;;;2.50;;
68947;SDS011;55996;49.546;7.400;2023-09-30T01:23:41;3.73;;;2.70;;
68947;SDS011;55996;49.546;7.400;2023-09-30T01:26:09;3.03;;;2.43;;
68947;SDS011;55996;49.546;7.400;2023-09-30T01:28:37;4.10;;;2.53;;
68947;SDS011;55996;49.546;7.400;2023-09-30T01:31:03;7.57;;;2.93;;
68947;SDS011;55996;49.546;7.400;2023-09-30T01:33:29;4.77;;;2.80;;
68947;SDS011;55996;49.546;7.400;2023-09-30T01:35:55;2.93;;;2.40;;
68947;SDS011;55996;49.546;7.400;2023-09-30T01:38:20;6.07;;;2.50;;
68947;SDS011;55996;49.546;7.400;2023-09-30T01:40:46;3.87;;;2.77;;
68947;SDS011;55996;49.546;7.400;2023-09-30T01:43:12;3.10;;;2.53;;
68947;SDS011;55996;49.546;7.400;2023-09-30T01:45:39;4.43;;;2.60;;
68947;SDS011;55996;49.546;7.400;2023-09-30T01:48:05;5.83;;;2.80;;
68947;SDS011;55996;49.546;7.400;2023-09-30T01:50:31;4.73;;;2.70;;
68947;SDS011;55996;49.546;7.400;2023-09-30T01:52:57;4.07;;;2.90;;
68947;SDS011;55996;49.546;7.400;2023-09-30T01:55:22;4.57;;;2.90;;
68947;SDS011;55996;49.546;7.400;2023-09-30T01:57:48;6.00;;;2.90;;
68947;SDS011;55996;49.546;7.400;2023-09-30T02:00:13;4.40;;;3.03;;
68947;SDS011;55996;49.546;7.400;2023-09-30T02:02:39;3.97;;;2.70;;
68947;SDS011;55996;49.546;7.400;2023-09-30T02:05:05;5.60;;;2.97;;
68947;SDS011;55996;49.546;7.400;2023-09-30T02:07:33;5.77;;;2.87;;
68947;SDS011;55996;49.546;7.400;2023-09-30T02:09:59;4.03;;;2.67;;
68947;SDS011;55996;49.546;7.400;2023-09-30T02:12:26;7.40;;;2.67;;
68947;SDS011;55996;49.546;7.400;2023-09-30T02:14:53;4.77;;;2.40;;
68947;SDS011;55996;49.546;7.400;2023-09-30T02:17:18;6.13;;;2.90;;
68947;SDS011;55996;49.546;7.400;2023-09-30T02:19:44;6.47;;;2.87;;
68947;SDS011;55996;49.546;7.400;2023-09-30T02:22:09;6.10;;;2.73;;
68947;SDS011;55996;49.546;7.400;2023-09-30T02:24:34;5.33;;;2.80;;
68947;SDS011;55996;49.546;7.400;2023-09-30T02:27:00;4.63;;;2.83;;
68947;SDS011;55996;49.546;7.400;2023-09-30T02:29:25;6.07;;;2.87;;
68947;SDS011;55996;49.546;7.400;2023-09-30T02:31:51;3.93;;;2.70;;
68947;SDS011;55996;49.546;7.400;2023-09-30T02:34:16;4.37;;;2.60;;
68947;SDS011;55996;49.546;7.400;2023-09-30T02:36:42;4.27;;;2.73;;
68947;SDS011;55996;49.546;7.400;2023-09-30T02:39:07;4.43;;;2.33;;
68947;SDS011;55996;49.546;7.400;2023-09-30T02:41:36;5.13;;;2.80;;
68947;SDS011;55996;49.546;7.400;2023-09-30T02:44:02;4.63;;;2.60;;
68947;SDS011;55996;49.546;7.400;2023-09-30T02:46:28;4.67;;;2.83;;
68947;SDS011;55996;49.546;7.400;2023-09-30T02:48:53;5.20;;;2.50;;
68947;SDS011;55996;49.546;7.400;2023-09-30T02:51:19;4.60;;;2.90;;
68947;SDS011;55996;49.546;7.400;2023-09-30T02:53:45;4.63;;;2.70;;
68947;SDS011;55996;49.546;7.400;2023-09-30T02:56:13;8.43;;;2.87;;
68947;SDS011;55996;49.546;7.400;2023-09-30T02:58:38;5.20;;;2.70;;
68947;SDS011;55996;49.546;7.400;2023-09-30T03:01:05;4.07;;;2.77;;
68947;SDS011;55996;49.546;7.400;2023-09-30T03:03:31;6.43;;;2.87;;
68947;SDS011;55996;49.546;7.400;2023-09-30T03:05:58;5.60;;;3.40;;
68947;SDS011;55996;49.546;7.400;2023-09-30T03:08:25;4.27;;;2.80;;
68947;SDS011;55996;49.546;7.400;2023-09-30T03:10:51;3.30;;;2.80;;
68947;SDS011;55996;49.546;7.400;2023-09-30T03:13:17;3.77;;;2.93;;
68947;SDS011;55996;49.546;7.400;2023-09-30T03:15:43;6.67;;;2.87;;
68947;SDS011;55996;49.546;7.400;2023-09-30T03:18:09;5.03;;;2.67;;
68947;SDS011;55996;49.546;7.400;2023-09-30T03:20:35;5.70;;;2.60;;
68947;SDS011;55996;49.546;7.400;2023-09-30T03:23:05;4.27;;;2.93;;
68947;SDS011;55996;49.546;7.400;2023-09-30T03:25:30;3.00;;;2.50;;
68947;SDS011;55996;49.546;7.400;2023-09-30T03:27:56;4.07;;;2.73;;
68947;SDS011;55996;49.546;7.400;2023-09-30T03:30:22;3.20;;;2.67;;
68947;SDS011;55996;49.546;7.400;2023-09-30T03:32:47;5.33;;;2.67;;
68947;SDS011;55996;49.546;7.400;2023-09-30T03:35:13;2.70;;;2.50;;
68947;SDS011;55996;49.546;7.400;2023-09-30T03:37:44;5.10;;;2.87;;
68947;SDS011;55996;49.546;7.400;2023-09-30T03:40:12;5.63;;;2.97;;
68947;SDS011;55996;49.546;7.400;2023-09-30T03:42:44;4.60;;;2.73;;
68947;SDS011;55996;49.546;7.400;2023-09-30T03:45:11;4.37;;;2.90;;
68947;SDS011;55996;49.546;7.400;2023-09-30T03:47:37;4.47;;;2.90;;
68947;SDS011;55996;49.546;7.400;2023-09-30T03:50:03;5.87;;;2.87;;
68947;SDS011;55996;49.546;7.400;2023-09-30T03:52:33;4.57;;;2.50;;
68947;SDS011;55996;49.546;7.400;2023-09-30T03:54:59;5.60;;;2.93;;
68947;SDS011;55996;49.546;7.400;2023-09-30T03:57:28;5.53;;;2.97;;
68947;SDS011;55996;49.546;7.400;2023-09-30T03:59:54;5.10;;;2.90;;
68947;SDS011;55996;49.546;7.400;2023-09-30T04:02:19;6.97;;;2.90;;
68947;SDS011;55996;49.546;7.400;2023-09-30T04:04:44;4.90;;;2.80;;
68947;SDS011;55996;49.546;7.400;2023-09-30T04:07:11;2.97;;;2.33;;
68947;SDS011;55996;49.546;7.400;2023-09-30T04:09:37;5.90;;;2.63;;
68947;SDS011;55996;49.546;7.400;2023-09-30T04:12:03;3.43;;;2.20;;
68947;SDS011;55996;49.546;7.400;2023-09-30T04:14:28;4.80;;;3.00;;
68947;SDS011;55996;49.546;7.400;2023-09-30T04:16:54;6.87;;;2.90;;
68947;SDS011;55996;49.546;7.400;2023-09-30T04:19:19;4.73;;;2.80;;
68947;SDS011;55996;49.546;7.400;2023-09-30T04:21:45;6.63;;;2.97;;
68947;SDS011;55996;49.546;7.400;2023-09-30T04:24:10;3.80;;;2.70;;
68947;SDS011;55996;49.546;7.400;2023-09-30T04:26:36;5.10;;;2.70;;
68947;SDS011;55996;49.546;7.400;2023-09-30T04:29:02;7.37;;;3.50;;
68947;SDS011;55996;49.546;7.400;2023-09-30T04:31:35;5.97;;;2.80;;
68947;SDS011;55996;49.546;7.400;2023-09-30T04:34:04;5.87;;;2.90;;
68947;SDS011;55996;49.546;7.400;2023-09-30T04:36:30;4.27;;;2.93;;
68947;SDS011;55996;49.546;7.400;2023-09-30T04:38:55;5.43;;;3.20;;
68947;SDS011;55996;49.546;7.400;2023-09-30T04:41:21;3.20;;;2.90;;
68947;SDS011;55996;49.546;7.400;2023-09-30T04:43:46;3.20;;;2.90;;
68947;SDS011;55996;49.546;7.400;2023-09-30T04:46:13;5.90;;;3.40;;
68947;SDS011;55996;49.546;7.400;2023-09-30T04:48:39;4.07;;;3.10;;
68947;SDS011;55996;49.546;7.400;2023-09-30T04:51:08;4.27;;;3.27;;
68947;SDS011;55996;49.546;7.400;2023-09-30T04:53:34;5.10;;;3.37;;
68947;SDS011;55996;49.546;7.400;2023-09-30T04:55:59;5.90;;;3.23;;
68947;SDS011;55996;49.546;7.400;2023-09-30T04:58:25;4.77;;;3.53;;
68947;SDS011;55996;49.546;7.400;2023-09-30T05:00:50;4.53;;;3.53;;
68947;SDS011;55996;49.546;7.400;2023-09-30T05:03:16;5.80;;;4.00;;
68947;SDS011;55996;49.546;7.400;2023-09-30T05:05:41;4.87;;;3.57;;
68947;SDS011;55996;49.546;7.400;2023-09-30T05:08:07;4.03;;;3.53;;
68947;SDS011;55996;49.546;7.400;2023-09-30T05:10:35;5.53;;;3.83;;
68947;SDS011;55996;49.546;7.400;2023-09-30T05:13:00;4.50;;;3.30;;
68947;SDS011;55996;49.546;7.400;2023-09-30T05:15:26;6.07;;;3.57;;
68947;SDS011;55996;49.546;7.400;2023-09-30T05:17:54;4.20;;;3.33;;
68947;SDS011;55996;49.546;7.400;2023-09-30T05:20:19;5.40;;;3.40;;
68947;SDS011;55996;49.546;7.400;2023-09-30T05:22:45;6.60;;;3.73;;
68947;SDS011;55996;49.546;7.400;2023-09-30T05:25:12;4.97;;;3.23;;
68947;SDS011;55996;49.546;7.400;2023-09-30T05:27:40;5.10;;;3.40;;
68947;SDS011;55996;49.546;7.400;2023-09-30T05:30:06;4.87;;;3.20;;
68947;SDS011;55996;49.546;7.400;2023-09-30T05:32:32;5.77;;;3.80;;
68947;SDS011;55996;49.546;7.400;2023-09-30T05:34:59;5.50;;;3.60;;
68947;SDS011;55996;49.546;7.400;2023-09-30T05:37:28;4.90;;;2.70;;
68947;SDS011;55996;49.546;7.400;2023-09-30T05:39:53;9.17;;;3.60;;
68947;SDS011;55996;49.546;7.400;2023-09-30T05:42:19;5.53;;;3.40;;
68947;SDS011;55996;49.546;7.400;2023-09-30T05:44:44;6.70;;;3.70;;
68947;SDS011;55996;49.546;7.400;2023-09-30T05:47:11;5.83;;;3.67;;
68947;SDS011;55996;49.546;7.400;2023-09-30T05:49:37;4.50;;;3.43;;
68947;SDS011;55996;49.546;7.400;2023-09-30T05:52:03;6.67;;;3.37;;
68947;SDS011;55996;49.546;7.400;2023-09-30T05:54:28;4.77;;;3.30;;
68947;SDS011;55996;49.546;7.400;2023-09-30T05:56:54;3.40;;;3.10;;
68947;SDS011;55996;49.546;7.400;2023-09-30T05:59:20;5.70;;;3.03;;
68947;SDS011;55996;49.546;7.400;2023-09-30T06:01:45;7.40;;;3.70;;
68947;SDS011;55996;49.546;7.400;2023-09-30T06:04:11;3.87;;;3.10;;
68947;SDS011;55996;49.546;7.400;2023-09-30T06:06:37;5.87;;;3.30;;
68947;SDS011;55996;49.546;7.400;2023-09-30T06:09:03;6.43;;;3.60;;
68947;SDS011;55996;49.546;7.400;2023-09-30T06:11:32;3.73;;;3.20;;
68947;SDS011;55996;49.546;7.400;2023-09-30T06:13:57;5.13;;;3.50;;
68947;SDS011;55996;49.546;7.400;2023-09-30T06:16:29;3.73;;;3.33;;
68947;SDS011;55996;49.546;7.400;2023-09-30T06:18:56;5.23;;;3.63;;
68947;SDS011;55996;49.546;7.400;2023-09-30T06:21:23;6.73;;;3.60;;
68947;SDS011;55996;49.546;7.400;2023-09-30T06:23:50;5.60;;;4.10;;
68947;SDS011;55996;49.546;7.400;2023-09-30T06:26:18;4.60;;;3.17;;
68947;SDS011;55996;49.546;7.400;2023-09-30T06:28:46;5.13;;;3.37;;
68947;SDS011;55996;49.546;7.400;2023-09-30T06:31:12;4.40;;;3.40;;
68947;SDS011;55996;49.546;7.400;2023-09-30T06:33:38;5.27;;;3.73;;
68947;SDS011;55996;49.546;7.400;2023-09-30T06:36:08;5.57;;;3.60;;
68947;SDS011;55996;49.546;7.400;2023-09-30T06:38:35;7.90;;;4.23;;
68947;SDS011;55996;49.546;7.400;2023-09-30T06:41:02;6.37;;;4.60;;
68947;SDS011;55996;49.546;7.400;2023-09-30T06:43:27;6.07;;;4.60;;
68947;SDS011;55996;49.546;7.400;2023-09-30T06:45:53;6.17;;;4.70;;
68947;SDS011;55996;49.546;7.400;2023-09-30T06:48:19;6.20;;;4.40;;
68947;SDS011;55996;49.546;7.400;2023-09-30T06:50:45;6.13;;;4.90;;
68947;SDS011;55996;49.546;7.400;2023-09-30T06:53:13;5.70;;;4.07;;
68947;SDS011;55996;49.546;7.400;2023-09-30T06:55:42;6.57;;;4.57;;
68947;SDS011;55996;49.546;7.400;2023-09-30T06:58:08;6.60;;;4.47;;
68947;SDS011;55996;49.546;7.400;2023-09-30T07:00:35;6.60;;;4.87;;
68947;SDS011;55996;49.546;7.400;2023-09-30T07:03:02;6.70;;;4.77;;
68947;SDS011;55996;49.546;7.400;2023-09-30T07:05:27;6.00;;;4.60;;
68947;SDS011;55996;49.546;7.400;2023-09-30T07:07:54;6.93;;;4.40;;
68947;SDS011;55996;49.546;7.400;2023-09-30T07:10:19;5.87;;;4.33;;
68947;SDS011;55996;49.546;7.400;2023-09-30T07:12:45;8.07;;;4.80;;
68947;SDS011;55996;49.546;7.400;2023-09-30T07:15:10;5.47;;;4.33;;
68947;SDS011;55996;49.546;7.400;2023-09-30T07:17:36;7.63;;;4.80;;
68947;SDS011;55996;49.546;7.400;2023-09-30T07:20:02;7.57;;;5.27;;
68947;SDS011;55996;49.546;7.400;2023-09-30T07:22:29;9.17;;;4.67;;
68947;SDS011;55996;49.546;7.400;2023-09-30T07:24:55;7.43;;;4.50;;
68947;SDS011;55996;49.546;7.400;2023-09-30T07:27:21;7.97;;;4.97;;
68947;SDS011;55996;49.546;7.400;2023-09-30T07:29:46;6.63;;;5.10;;
68947;SDS011;55996;49.546;7.400;2023-09-30T07:32:13;6.33;;;4.90;;
68947;SDS011;55996;49.546;7.400;2023-09-30T07:34:38;7.87;;;5.03;;
68947;SDS011;55996;49.546;7.400;2023-09-30T07:37:04;10.77;;;4.57;;
68947;SDS011;55996;49.546;7.400;2023-09-30T07:39:29;6.17;;;4.60;;
68947;SDS011;55996;49.546;7.400;2023-09-30T07:41:55;5.40;;;4.50;;
68947;SDS011;55996;49.546;7.400;2023-09-30T07:44:21;6.93;;;4.53;;
68947;SDS011;55996;49.546;7.400;2023-09-30T07:46:46;7.77;;;5.37;;
68947;SDS011;55996;49.546;7.400;2023-09-30T07:49:12;7.20;;;4.80;;
68947;SDS011;55996;49.546;7.400;2023-09-30T07:51:37;9.63;;;5.90;;
68947;SDS011;55996;49.546;7.400;2023-09-30T07:54:05;9.40;;;6.10;;
68947;SDS011;55996;49.546;7.400;2023-09-30T07:56:31;9.30;;;5.80;;
68947;SDS011;55996;49.546;7.400;2023-09-30T07:58:56;8.60;;;5.37;;
68947;SDS011;55996;49.546;7.400;2023-09-30T08:01:22;6.97;;;5.40;;
68947;SDS011;55996;49.546;7.400;2023-09-30T08:03:47;8.70;;;5.57;;
68947;SDS011;55996;49.546;7.400;2023-09-30T08:06:13;9.33;;;4.90;;
68947;SDS011;55996;49.546;7.400;2023-09-30T08:08:38;10.33;;;5.57;;
68947;SDS011;55996;49.546;7.400;2023-09-30T08:11:05;6.80;;;5.53;;
68947;SDS011;55996;49.546;7.400;2023-09-30T08:13:31;7.23;;;5.20;;
68947;SDS011;55996;49.546;7.400;2023-09-30T08:15:57;7.70;;;5.00;;
68947;SDS011;55996;49.546;7.400;2023-09-30T08:18:26;12.13;;;4.90;;
68947;SDS011;55996;49.546;7.400;2023-09-30T08:20:51;8.53;;;5.20;;
68947;SDS011;55996;49.546;7.400;2023-09-30T08:23:17;10.33;;;5.17;;
68947;SDS011;55996;49.546;7.400;2023-09-30T08:25:42;7.13;;;4.73;;
68947;SDS011;55996;49.546;7.400;2023-09-30T08:28:08;7.30;;;5.07;;
68947;SDS011;55996;49.546;7.400;2023-09-30T08:30:34;9.20;;;5.07;;
68947;SDS011;55996;49.546;7.400;2023-09-30T08:33:00;8.53;;;4.77;;
68947;SDS011;55996;49.546;7.400;2023-09-30T08:35:28;8.40;;;4.83;;
68947;SDS011;55996;49.546;7.400;2023-09-30T08:37:54;8.60;;;4.50;;
68947;SDS011;55996;49.546;7.400;2023-09-30T08:40:22;4.93;;;3.93;;
68947;SDS011;55996;49.546;7.400;2023-09-30T08:42:49;8.20;;;4.97;;
68947;SDS011;55996;49.546;7.400;2023-09-30T08:45:18;7.47;;;4.60;;
68947;SDS011;55996;49.546;7.400;2023-09-30T08:47:43;6.63;;;4.50;;
68947;SDS011;55996;49.546;7.400;2023-09-30T08:50:10;8.13;;;4.80;;
68947;SDS011;55996;49.546;7.400;2023-09-30T08:52:37;8.23;;;4.07;;
68947;SDS011;55996;49.546;7.400;2023-09-30T08:55:04;6.93;;;4.47;;
68947;SDS011;55996;49.546;7.400;2023-09-30T08:57:31;8.00;;;4.00;;
68947;SDS011;55996;49.546;7.400;2023-09-30T08:59:57;9.37;;;4.80;;
68947;SDS011;55996;49.546;7.400;2023-09-30T09:02:23;7.43;;;4.37;;
68947;SDS011;55996;49.546;7.400;2023-09-30T09:04:49;6.13;;;4.23;;
68947;SDS011;55996;49.546;7.400;2023-09-30T09:07:14;6.33;;;3.60;;
68947;SDS011;55996;49.546;7.400;2023-09-30T09:09:43;8.87;;;4.50;;
68947;SDS011;55996;49.546;7.400;2023-09-30T09:12:28;6.90;;;4.23;;
68947;SDS011;55996;49.546;7.400;2023-09-30T09:14:53;5.50;;;3.77;;
68947;SDS011;55996;49.546;7.400;2023-09-30T09:17:19;5.47;;;3.70;;
68947;SDS011;55996;49.546;7.400;2023-09-30T09:19:51;8.17;;;4.00;;
68947;SDS011;55996;49.546;7.400;2023-09-30T09:22:25;7.37;;;3.83;;
68947;SDS011;55996;49.546;7.400;2023-09-30T09:25:03;8.30;;;4.37;;
68947;SDS011;55996;49.546;7.400;2023-09-30T09:27:28;5.60;;;3.57;;
68947;SDS011;55996;49.546;7.400;2023-09-30T09:30:07;7.43;;;3.97;;
68947;SDS011;55996;49.546;7.400;2023-09-30T09:33:06;11.20;;;4.57;;
68947;SDS011;55996;49.546;7.400;2023-09-30T09:35:32;8.93;;;3.80;;
68947;SDS011;55996;49.546;7.400;2023-09-30T09:40:38;8.03;;;3.70;;
68947;SDS011;55996;49.546;7.400;2023-09-30T09:43:05;6.00;;;3.43;;
68947;SDS011;55996;49.546;7.400;2023-09-30T09:45:35;6.63;;;3.67;;
68947;SDS011;55996;49.546;7.400;2023-09-30T09:48:04;8.03;;;3.90;;
68947;SDS011;55996;49.546;7.400;2023-09-30T09:50:30;6.60;;;3.90;;
68947;SDS011;55996;49.546;7.400;2023-09-30T09:52:59;5.32;;;3.25;;
68947;SDS011;55996;49.546;7.400;2023-09-30T09:55:25;6.70;;;3.78;;
68947;SDS011;55996;49.546;7.400;2023-09-30T09:57:52;7.82;;;3.88;;
68947;SDS011;55996;49.546;7.400;2023-09-30T10:00:20;6.72;;;3.58;;
68947;SDS011;55996;49.546;7.400;2023-09-30T10:02:48;5.60;;;3.90;;
68947;SDS011;55996;49.546;7.400;2023-09-30T10:05:15;7.57;;;3.83;;
68947;SDS011;55996;49.546;7.400;2023-09-30T10:07:54;8.10;;;4.13;;
68947;SDS011;55996;49.546;7.400;2023-09-30T10:10:25;8.03;;;4.30;;
68947;SDS011;55996;49.546;7.400;2023-09-30T10:12:51;5.90;;;4.03;;
68947;SDS011;55996;49.546;7.400;2023-09-30T10:20:35;5.80;;;3.55;;
68947;SDS011;55996;49.546;7.400;2023-09-30T10:25:43;5.60;;;3.50;;
68947;SDS011;55996;49.546;7.400;2023-09-30T10:31:07;10.68;;;4.90;;
68947;SDS011;55996;49.546;7.400;2023-09-30T10:33:33;8.07;;;4.88;;
68947;SDS011;55996;49.546;7.400;2023-09-30T10:35:58;8.05;;;4.70;;
68947;SDS011;55996;49.546;7.400;2023-09-30T10:40:54;9.07;;;5.28;;
68947;SDS011;55996;49.546;7.400;2023-09-30T10:46:01;6.90;;;4.35;;
68947;SDS011;55996;49.546;7.400;2023-09-30T10:53:23;9.40;;;4.93;;
68947;SDS011;55996;49.546;7.400;2023-09-30T10:55:55;10.68;;;5.07;;
68947;SDS011;55996;49.546;7.400;2023-09-30T10:58:39;13.20;;;5.22;;
68947;SDS011;55996;49.546;7.400;2023-09-30T11:01:05;9.35;;;5.22;;
68947;SDS011;55996;49.546;7.400;2023-09-30T11:03:31;9.13;;;5.22;;
68947;SDS011;55996;49.546;7.400;2023-09-30T11:05:57;8.60;;;4.35;;
68947;SDS011;55996;49.546;7.400;2023-09-30T11:08:22;7.68;;;4.68;;
68947;SDS011;55996;49.546;7.400;2023-09-30T11:10:49;8.30;;;4.55;;
68947;SDS011;55996;49.546;7.400;2023-09-30T11:13:20;9.13;;;4.70;;
68947;SDS011;55996;49.546;7.400;2023-09-30T11:15:45;8.90;;;5.63;;
68947;SDS011;55996;49.546;7.400;2023-09-30T11:18:15;9.85;;;5.82;;
68947;SDS011;55996;49.546;7.400;2023-09-30T11:20:43;11.40;;;6.05;;
68947;SDS011;55996;49.546;7.400;2023-09-30T11:23:13;11.82;;;6.45;;
68947;SDS011;55996;49.546;7.400;2023-09-30T11:25:39;11.60;;;7.17;;
68947;SDS011;55996;49.546;7.400;2023-09-30T11:28:13;10.38;;;6.05;;
68947;SDS011;55996;49.546;7.400;2023-09-30T11:30:56;10.43;;;6.18;;
68947;SDS011;55996;49.546;7.400;2023-09-30T11:33:23;10.27;;;6.53;;
68947;SDS011;55996;49.546;7.400;2023-09-30T11:35:56;12.32;;;6.20;;
68947;SDS011;55996;49.546;7.400;2023-09-30T11:38:24;12.57;;;6.63;;
68947;SDS011;55996;49.546;7.400;2023-09-30T11:40:59;10.95;;;6.13;;
68947;SDS011;55996;49.546;7.400;2023-09-30T11:43:34;12.50;;;6.28;;
68947;SDS011;55996;49.546;7.400;2023-09-30T11:46:07;8.55;;;5.47;;
68947;SDS011;55996;49.546;7.400;2023-09-30T11:48:36;12.73;;;6.70;;
68947;SDS011;55996;49.546;7.400;2023-09-30T11:51:21;11.90;;;6.35;;
68947;SDS011;55996;49.546;7.400;2023-09-30T11:53:49;13.90;;;6.60;;
68947;SDS011;55996;49.546;7.400;2023-09-30T11:56:15;11.68;;;6.20;;
68947;SDS011;55996;49.546;7.400;2023-09-30T11:58:41;10.32;;;6.18;;
68947;SDS011;55996;49.546;7.400;2023-09-30T12:01:07;12.30;;;6.07;;
68947;SDS011;55996;49.546;7.400;2023-09-30T12:03:32;11.30;;;6.27;;
68947;SDS011;55996;49.546;7.400;2023-09-30T12:06:04;11.63;;;6.33;;
68947;SDS011;55996;49.546;7.400;2023-09-30T12:08:30;11.53;;;6.23;;
68947;SDS011;55996;49.546;7.400;2023-09-30T12:10:55;11.17;;;6.20;;
68947;SDS011;55996;49.546;7.400;2023-09-30T12:13:21;11.70;;;6.23;;
68947;SDS011;55996;49.546;7.400;2023-09-30T12:15:46;10.50;;;6.38;;
68947;SDS011;55996;49.546;7.400;2023-09-30T12:18:11;12.02;;;6.35;;
68947;SDS011;55996;49.546;7.400;2023-09-30T12:20:39;11.20;;;6.28;;
68947;SDS011;55996;49.546;7.400;2023-09-30T12:23:06;13.57;;;6.88;;
68947;SDS011;55996;49.546;7.400;2023-09-30T12:25:32;10.07;;;6.43;;
68947;SDS011;55996;49.546;7.400;2023-09-30T12:27:58;10.07;;;6.90;;
68947;SDS011;55996;49.546;7.400;2023-09-30T12:30:24;12.00;;;6.67;;
68947;SDS011;55996;49.546;7.400;2023-09-30T12:32:49;11.43;;;6.93;;
68947;SDS011;55996;49.546;7.400;2023-09-30T12:35:15;11.75;;;6.95;;
68947;SDS011;55996;49.546;7.400;2023-09-30T12:37:40;11.60;;;7.07;;
68947;SDS011;55996;49.546;7.400;2023-09-30T12:40:07;11.23;;;6.57;;
68947;SDS011;55996;49.546;7.400;2023-09-30T12:42:36;12.07;;;6.10;;
68947;SDS011;55996;49.546;7.400;2023-09-30T12:45:02;15.43;;;6.35;;
68947;SDS011;55996;49.546;7.400;2023-09-30T12:47:30;9.95;;;6.07;;
68947;SDS011;55996;49.546;7.400;2023-09-30T12:49:56;9.97;;;5.87;;
68947;SDS011;55996;49.546;7.400;2023-09-30T12:52:22;11.55;;;6.20;;
68947;SDS011;55996;49.546;7.400;2023-09-30T12:54:49;10.77;;;6.38;;
68947;SDS011;55996;49.546;7.400;2023-09-30T12:57:14;9.27;;;6.10;;
68947;SDS011;55996;49.546;7.400;2023-09-30T12:59:43;11.57;;;6.53;;
68947;SDS011;55996;49.546;7.400;2023-09-30T13:02:11;10.32;;;6.75;;
68947;SDS011;55996;49.546;7.400;2023-09-30T13:04:37;12.13;;;6.78;;
68947;SDS011;55996;49.546;7.400;2023-09-30T13:07:07;9.02;;;6.07;;
68947;SDS011;55996;49.546;7.400;2023-09-30T13:09:33;10.88;;;5.72;;
68947;SDS011;55996;49.546;7.400;2023-09-30T13:11:59;10.02;;;6.07;;
68947;SDS011;55996;49.546;7.400;2023-09-30T13:14:25;8.88;;;5.80;;
68947;SDS011;55996;49.546;7.400;2023-09-30T13:16:53;8.15;;;5.60;;
68947;SDS011;55996;49.546;7.400;2023-09-30T13:19:19;9.30;;;6.00;;
68947;SDS011;55996;49.546;7.400;2023-09-30T13:21:46;8.80;;;5.40;;
68947;SDS011;55996;49.546;7.400;2023-09-30T13:24:12;10.45;;;5.55;;
68947;SDS011;55996;49.546;7.400;2023-09-30T13:26:39;7.88;;;5.28;;
68947;SDS011;55996;49.546;7.400;2023-09-30T13:29:04;7.07;;;4.85;;
68947;SDS011;55996;49.546;7.400;2023-09-30T13:31:30;8.60;;;5.45;;
68947;SDS011;55996;49.546;7.400;2023-09-30T13:33:56;10.38;;;5.38;;
68947;SDS011;55996;49.546;7.400;2023-09-30T13:36:21;9.98;;;4.82;;
68947;SDS011;55996;49.546;7.400;2023-09-30T13:38:47;12.43;;;5.20;;
68947;SDS011;55996;49.546;7.400;2023-09-30T13:41:14;8.98;;;5.68;;
68947;SDS011;55996;49.546;7.400;2023-09-30T13:43:40;10.88;;;5.38;;
68947;SDS011;55996;49.546;7.400;2023-09-30T13:46:06;10.48;;;5.25;;
68947;SDS011;55996;49.546;7.400;2023-09-30T13:48:32;8.20;;;4.95;;
68947;SDS011;55996;49.546;7.400;2023-09-30T13:51:08;8.25;;;5.10;;
68947;SDS011;55996;49.546;7.400;2023-09-30T13:53:35;7.75;;;5.53;;
68947;SDS011;55996;49.546;7.400;2023-09-30T13:56:02;8.00;;;5.10;;
68947;SDS011;55996;49.546;7.400;2023-09-30T13:58:30;12.70;;;5.38;;
68947;SDS011;55996;49.546;7.400;2023-09-30T14:00:56;31.58;;;7.32;;
68947;SDS011;55996;49.546;7.400;2023-09-30T14:03:22;8.40;;;5.20;;
68947;SDS011;55996;49.546;7.400;2023-09-30T14:05:49;10.68;;;5.97;;
68947;SDS011;55996;49.546;7.400;2023-09-30T14:08:15;94.80;;;9.70;;
68947;SDS011;55996;49.546;7.400;2023-09-30T14:10:41;23.50;;;5.97;;
68947;SDS011;55996;49.546;7.400;2023-09-30T14:13:09;8.25;;;5.95;;
68947;SDS011;55996;49.546;7.400;2023-09-30T14:15:35;7.28;;;5.10;;
68947;SDS011;55996;49.546;7.400;2023-09-30T14:18:00;12.68;;;5.63;;
68947;SDS011;55996;49.546;7.400;2023-09-30T14:20:27;8.95;;;5.78;;
68947;SDS011;55996;49.546;7.400;2023-09-30T14:22:52;8.00;;;4.60;;
68947;SDS011;55996;49.546;7.400;2023-09-30T14:25:20;11.18;;;5.93;;
68947;SDS011;55996;49.546;7.400;2023-09-30T14:27:46;7.75;;;4.82;;
68947;SDS011;55996;49.546;7.400;2023-09-30T14:30:12;7.97;;;5.38;;
68947;SDS011;55996;49.546;7.400;2023-09-30T14:32:38;9.73;;;5.57;;
68947;SDS011;55996;49.546;7.400;2023-09-30T14:35:05;10.85;;;5.70;;
68947;SDS011;55996;49.546;7.400;2023-09-30T14:37:31;14.13;;;5.53;;
68947;SDS011;55996;49.546;7.400;2023-09-30T14:39:56;10.02;;;5.80;;
68947;SDS011;55996;49.546;7.400;2023-09-30T14:42:22;8.00;;;4.70;;
68947;SDS011;55996;49.546;7.400;2023-09-30T14:44:47;9.55;;;5.18;;
68947;SDS011;55996;49.546;7.400;2023-09-30T14:47:13;7.45;;;5.10;;
68947;SDS011;55996;49.546;7.400;2023-09-30T14:49:38;12.23;;;6.32;;
68947;SDS011;55996;49.546;7.400;2023-09-30T14:52:04;9.27;;;5.45;;
68947;SDS011;55996;49.546;7.400;2023-09-30T14:54:30;7.72;;;5.18;;
68947;SDS011;55996;49.546;7.400;2023-09-30T14:56:56;6.78;;;5.15;;
68947;SDS011;55996;49.546;7.400;2023-09-30T14:59:21;8.25;;;5.45;;
68947;SDS011;55996;49.546;7.400;2023-09-30T15:01:47;8.15;;;5.13;;
68947;SDS011;55996;49.546;7.400;2023-09-30T15:04:13;7.43;;;5.10;;
68947;SDS011;55996;49.546;7.400;2023-09-30T15:06:40;7.80;;;5.13;;